createdAt,value
2018-11-21T00:01:30.844Z,21.13
2018-11-21T00:04:54.760Z,20.57
2018-11-21T00:08:18.666Z,22.90
2018-11-21T00:11:42.580Z,23.70
2018-11-21T00:14:47.149Z,21.13
2018-11-21T00:18:11.084Z,20.90
2018-11-21T00:21:35.108Z,21.23
2018-11-21T00:25:01.895Z,21.43
2018-11-21T00:28:25.816Z,22.30
2018-11-21T00:31:49.726Z,21.00
2018-11-21T00:35:13.676Z,21.13
2018-11-21T00:38:37.544Z,22.93
2018-11-21T00:42:01.404Z,21.57
2018-11-21T00:45:25.343Z,22.03
2018-11-21T00:48:49.330Z,23.10
2018-11-21T00:52:13.274Z,24.90
2018-11-21T00:55:37.150Z,23.53
2018-11-21T00:59:01.099Z,21.57
2018-11-21T01:02:18.244Z,22.60
2018-11-21T01:05:42.082Z,23.50
2018-11-21T01:09:07.718Z,22.10
2018-11-21T01:12:31.560Z,22.80
2018-11-21T01:15:55.468Z,22.17
2018-11-21T01:19:19.564Z,24.00
2018-11-21T01:22:43.461Z,22.90
2018-11-21T01:26:07.376Z,21.10
2018-11-21T01:29:31.285Z,22.63
2018-11-21T01:32:55.157Z,22.43
2018-11-21T01:36:19.050Z,23.17
2018-11-21T01:39:42.940Z,23.03
2018-11-21T01:43:07.019Z,21.27
2018-11-21T01:46:30.944Z,24.40
2018-11-21T01:49:54.863Z,25.30
2018-11-21T01:53:18.721Z,20.33
2018-11-21T01:56:42.679Z,22.13
2018-11-21T02:00:08.628Z,21.77
2018-11-21T02:03:32.553Z,23.27
2018-11-21T02:06:56.452Z,22.70
2018-11-21T02:10:20.679Z,21.53
2018-11-21T02:13:44.551Z,20.43
2018-11-21T02:17:08.415Z,21.13
2018-11-21T02:20:32.387Z,22.03
2018-11-21T02:23:56.190Z,21.90
2018-11-21T02:27:20.101Z,20.37
2018-11-21T02:30:44.080Z,22.30
2018-11-21T02:34:08.000Z,22.00
2018-11-21T02:37:31.892Z,21.17
2018-11-21T02:40:55.753Z,21.63
2018-11-21T02:44:19.718Z,22.90
2018-11-21T02:47:43.601Z,23.03
2018-11-21T02:51:07.480Z,23.50
2018-11-21T02:54:31.351Z,23.00
2018-11-21T02:57:55.218Z,23.60
2018-11-21T03:01:19.095Z,21.00
2018-11-21T03:04:42.931Z,21.73
2018-11-21T03:08:06.908Z,21.93
2018-11-21T03:11:30.786Z,22.23
2018-11-21T03:14:54.694Z,22.90
2018-11-21T03:18:18.585Z,20.33
2018-11-21T03:21:42.535Z,23.90
2018-11-21T03:25:06.443Z,24.90
2018-11-21T03:28:30.322Z,26.97
2018-11-21T03:31:54.151Z,25.27
2018-11-21T03:35:18.146Z,27.30
2018-11-21T03:38:42.189Z,26.47
2018-11-21T03:42:06.652Z,23.87
2018-11-21T03:45:30.472Z,25.37
2018-11-21T03:48:54.343Z,23.67
2018-11-21T03:52:18.224Z,22.23
2018-11-21T03:55:42.347Z,21.47
2018-11-21T03:59:06.572Z,25.33
2018-11-21T04:02:30.663Z,24.97
2018-11-21T04:05:54.612Z,28.43
2018-11-21T04:09:18.580Z,27.03
2018-11-21T04:12:42.391Z,27.07
2018-11-21T04:16:06.456Z,28.17
2018-11-21T04:19:30.343Z,25.77
2018-11-21T04:22:54.143Z,26.13
2018-11-21T04:26:18.551Z,27.43
2018-11-21T04:29:42.475Z,26.43
2018-11-21T04:33:06.309Z,29.27
2018-11-21T04:36:30.225Z,24.43
2018-11-21T04:39:54.134Z,25.13
2018-11-21T04:43:18.030Z,23.63
2018-11-21T04:46:41.935Z,25.03
2018-11-21T04:50:06.473Z,26.23
2018-11-21T04:53:30.359Z,22.40
2018-11-21T04:56:54.324Z,22.13
2018-11-21T05:00:18.151Z,23.87
2018-11-21T05:03:42.046Z,22.47
2018-11-21T05:07:06.011Z,23.93
2018-11-21T05:10:30.015Z,24.40
2018-11-21T05:13:53.868Z,23.23
2018-11-21T05:17:17.802Z,25.83
2018-11-21T05:20:41.696Z,22.10
2018-11-21T05:24:05.791Z,21.93
2018-11-21T05:27:29.912Z,21.27
2018-11-21T05:30:54.129Z,22.37
2018-11-21T05:34:18.111Z,20.07
2018-11-21T05:37:42.010Z,19.40
2018-11-21T05:41:06.219Z,20.40
2018-11-21T05:44:31.541Z,19.67
2018-11-21T05:47:54.218Z,21.00
2018-11-21T05:51:18.075Z,18.70
2018-11-21T05:54:41.995Z,17.37
2018-11-21T05:58:06.346Z,16.97
2018-11-21T06:01:30.202Z,17.50
2018-11-21T06:04:54.044Z,17.47
2018-11-21T06:08:17.940Z,17.43
2018-11-21T06:11:42.606Z,16.57
2018-11-21T06:15:06.925Z,17.73
2018-11-21T06:18:30.839Z,17.43
2018-11-21T06:21:55.150Z,17.70
2018-11-21T06:25:19.091Z,17.50
2018-11-21T06:28:42.931Z,18.03
2018-11-21T06:32:07.238Z,18.63
2018-11-21T06:35:31.330Z,29.23
2018-11-21T06:38:55.665Z,26.83
2018-11-21T06:42:33.635Z,26.10
2018-11-21T06:45:43.881Z,22.17
2018-11-21T06:49:08.173Z,20.33
2018-11-21T06:52:32.169Z,21.20
2018-11-21T06:55:56.046Z,19.07
2018-11-21T06:59:19.917Z,18.73
2018-11-21T07:02:43.881Z,17.80
2018-11-21T07:06:07.769Z,17.03
2018-11-21T07:09:31.632Z,16.80
2018-11-21T07:12:55.502Z,16.33
2018-11-21T07:16:19.388Z,17.90
2018-11-21T07:19:43.371Z,16.67
2018-11-21T07:23:07.201Z,13.67
2018-11-21T07:26:31.065Z,17.13
2018-11-21T07:29:54.935Z,16.27
2018-11-21T07:33:18.844Z,17.93
2018-11-21T07:36:48.067Z,16.93
2018-11-21T07:40:13.407Z,16.37
2018-11-21T07:43:37.335Z,17.50
2018-11-21T07:47:01.205Z,17.17
2018-11-21T07:50:25.042Z,15.43
2018-11-21T07:53:48.905Z,14.63
2018-11-21T07:57:33.911Z,13.50
2018-11-21T08:01:20.051Z,12.37
2018-11-21T08:05:02.819Z,13.20
2018-11-21T08:08:34.779Z,12.77
2018-11-21T08:12:17.624Z,13.33
2018-11-21T08:16:00.491Z,12.50
2018-11-21T08:19:43.328Z,13.43
2018-11-21T08:23:26.181Z,12.03
2018-11-21T08:27:09.015Z,13.30
2018-11-21T08:30:32.964Z,14.17
2018-11-21T08:33:56.810Z,13.60
2018-11-21T08:37:20.736Z,12.87
2018-11-21T08:40:44.875Z,12.03
2018-11-21T08:44:08.768Z,12.57
2018-11-21T08:47:32.664Z,12.47
2018-11-21T08:50:56.543Z,13.20
2018-11-21T08:54:20.381Z,13.67
2018-11-21T08:57:44.258Z,11.83
2018-11-21T09:01:07.785Z,11.83
2018-11-21T09:04:31.726Z,11.43
2018-11-21T09:07:55.663Z,13.00
2018-11-21T09:11:19.560Z,12.23
2018-11-21T09:14:43.388Z,13.57
2018-11-21T09:18:07.282Z,13.77
2018-11-21T09:21:31.235Z,13.70
2018-11-21T09:24:55.064Z,13.13
2018-11-21T09:28:18.985Z,13.00
2018-11-21T09:31:42.861Z,12.37
2018-11-21T09:35:09.123Z,13.60
2018-11-21T09:38:33.019Z,12.47
2018-11-21T09:41:56.897Z,10.83
2018-11-21T09:45:21.747Z,29.27
2018-11-21T09:48:45.553Z,11.97
2018-11-21T09:52:09.684Z,9.57
2018-11-21T09:55:33.525Z,22.00
2018-11-21T09:58:57.442Z,10.53
2018-11-21T10:02:59.980Z,11.83
2018-11-21T10:06:25.768Z,11.70
2018-11-21T10:09:50.941Z,7.27
2018-11-21T10:13:14.847Z,7.60
2018-11-21T10:16:38.785Z,9.07
2018-11-21T10:20:02.646Z,7.17
2018-11-21T10:23:26.558Z,7.20
2018-11-21T10:26:50.438Z,7.83
2018-11-21T10:30:14.310Z,8.07
2018-11-21T10:33:38.234Z,9.47
2018-11-21T10:37:02.183Z,8.03
2018-11-21T10:40:26.044Z,6.60
2018-11-21T10:43:49.913Z,7.20
2018-11-21T10:47:13.832Z,6.83
2018-11-21T10:50:37.726Z,6.63
2018-11-21T10:54:01.603Z,6.30
2018-11-21T10:57:25.556Z,7.17
2018-11-21T11:00:47.738Z,6.50
2018-11-21T11:03:54.917Z,7.80
2018-11-21T11:07:17.159Z,10.23
2018-11-21T11:10:40.723Z,7.17
2018-11-21T11:14:10.243Z,6.50
2018-11-21T11:17:36.617Z,5.47
2018-11-21T11:21:06.325Z,5.97
2018-11-21T11:24:26.395Z,5.73
2018-11-21T11:27:52.930Z,5.97
2018-11-21T11:31:28.568Z,6.70
2018-11-21T11:34:57.924Z,7.23
2018-11-21T11:38:20.152Z,10.63
2018-11-21T11:41:55.536Z,6.90
2018-11-21T11:45:16.817Z,6.60
2018-11-21T11:48:39.160Z,5.60
2018-11-21T11:51:55.937Z,5.60
2018-11-21T11:55:22.147Z,5.60
2018-11-21T11:58:44.178Z,4.90
2018-11-21T12:02:26.098Z,5.13
2018-11-21T12:05:48.344Z,5.40
2018-11-21T12:09:01.273Z,6.17
2018-11-21T12:12:24.236Z,6.30
2018-11-21T12:15:47.728Z,6.10
2018-11-21T12:19:10.086Z,6.87
2018-11-21T12:22:33.615Z,5.23
2018-11-21T12:25:57.240Z,6.00
2018-11-21T12:29:19.744Z,6.50
2018-11-21T12:32:45.919Z,4.97
2018-11-21T12:36:07.999Z,5.80
2018-11-21T12:39:30.039Z,5.13
2018-11-21T12:42:51.987Z,5.33
2018-11-21T12:46:30.489Z,4.97
2018-11-21T12:49:54.081Z,5.03
2018-11-21T12:53:17.584Z,5.27
2018-11-21T12:56:56.136Z,4.30
2018-11-21T13:00:38.105Z,6.10
2018-11-21T13:04:16.671Z,6.20
2018-11-21T13:07:40.354Z,5.53
2018-11-21T13:11:03.318Z,5.83
2018-11-21T13:14:25.379Z,5.87
2018-11-21T13:17:54.923Z,5.43
2018-11-21T13:21:17.218Z,5.50
2018-11-21T13:24:52.774Z,5.20
2018-11-21T13:28:16.374Z,5.13
2018-11-21T13:31:42.629Z,5.23
2018-11-21T13:35:08.930Z,5.13
2018-11-21T13:38:31.940Z,5.40
2018-11-21T13:41:58.444Z,6.03
2018-11-21T13:45:28.035Z,6.93
2018-11-21T13:48:55.432Z,12.17
2018-11-21T13:52:12.028Z,7.13
2018-11-21T13:55:16.708Z,4.43
2018-11-21T13:58:21.228Z,6.37
2018-11-21T14:01:25.831Z,6.20
2018-11-21T14:04:30.369Z,5.90
2018-11-21T14:07:34.951Z,7.77
2018-11-21T14:10:39.597Z,5.57
2018-11-21T14:13:44.208Z,5.30
2018-11-21T14:16:48.819Z,5.07
2018-11-21T14:19:53.435Z,5.93
2018-11-21T14:22:58.113Z,6.13
2018-11-21T14:26:02.700Z,5.23
